Accueil
METAR-TAF:

METAR-TAF

Aéroports :

Charlotte, Michigan, États-Unis

latitude: 42-34-28N, longitude: 084-48-41W, altitude: 271 m

Observation

Le bulletin a été fait il y a 16 minutes, à 07:15 UTC
Vent 4 kt de sud
Température 16°C
Humidité 77%
Pression 1011 hPa
Visibilité: 16.1 km
Nuages épars à une hauteur de 3200 ft
Nuages fragmentés à une hauteur de 4400 ft
Ciel couvert à une hauteur de 11000 ft
pluie faible

METAR: KFPK 210715Z AUTO 19004KT 10SM -RA SCT032 BKN044 OVC110 16/12 A2985 RMK AO2 T01550116

Heure: 03:31 (07:31 UTC)


TAF: absent

Observations et prévisions météorologiques de plus de 4000 aéroports (messages METAR et TAF).

Les stations disponibles sont représentées par des disques jaunes et rouges sur la carte.

Passer la souris dessus pour voir le nom de la station.

Cliquer dessus pour voir les observations et prévisions météorologiques.

Pour changer de carte: cliquez sur les boutons verts avec une croix noire pour zoomer, sur le bouton vert avec un tiret pour effectuer un zoom arrière, ou sur les flèches vertes pour les cartes adjacentes.


METAR-TAF: